Currently 89°F in Pinon Hills, California, USA
89°F
89°F / 72°F
calm
0.00"
Monday, July 22, 2019 9:23 AM PDT

Pinon Hills, California Weather Summary
Last 36 Hours

Temperature Winds Hourly Humidity Dewpoint
Time Report Norm Report Norm Max Gusts Precip. Rpt. Norm Rpt. Norm Pressure
1,2Mon 09:23 AM  89.2°F  81°F  calm  1 mph  none  0.00"  15%  28%  34°F  44°F  30.06"
Mon 09:00 AM  88.3°F  80°F  calm  1 mph  none  0.00"  16%  28%  34°F  43°F  30.06"
Mon 08:00 AM  81.0°F  77°F  calm  1 mph  none  0.00"  27%  31%  43°F  43°F  30.04"
Mon 07:00 AM  77.0°F  72°F  calm  calm  5 mph  0.00"  30%  37%  42°F  44°F  30.04"
Mon 06:00 AM  73.1°F  68°F  3 mph SW  2 mph  5 mph  0.00"  29%  40%  38°F  42°F  30.04"
Mon 05:00 AM  72.5°F  69°F  1 mph SW  2 mph  5 mph  0.00"  30%  40%  38°F  42°F  30.03"
3Mon 04:43 AM  71.7°F  69°F  3 mph SW  2 mph  4 mph  ----  31%  40%  38°F  43°F  30.02"
Mon 04:00 AM  72.8°F  69°F  3 mph SW  2 mph  6 mph  0.00"  31%  39%  39°F  43°F  30.02"
Mon 03:00 AM  73.9°F  70°F  2 mph SW  2 mph  6 mph  0.00"  31%  38%  40°F  43°F  30.02"
Mon 02:00 AM  74.3°F  71°F  3 mph S  2 mph  6 mph  0.00"  32%  38%  41°F  43°F  30.02"
Mon 01:00 AM  73.5°F  72°F  2 mph SW  2 mph  5 mph  0.00"  32%  37%  41°F  43°F  30.03"
Mon 12:00 AM  73.5°F  72°F  3 mph S  2 mph  6 mph  0.00"  31%  37%  40°F  44°F  30.02"
Sun 11:00 PM  72.0°F  73°F  4 mph SW  1 mph  8 mph  0.00"  35%  37%  41°F  44°F  30.02"
Sun 10:00 PM  80.6°F  75°F  5 mph NW  2 mph  11 mph  0.00"  24%  36%  39°F  45°F  30.01"
Sun 09:00 PM  83.9°F  78°F  3 mph S  3 mph  8 mph  0.00"  17%  33%  32°F  45°F  29.99"
Sun 08:00 PM  84.8°F  81°F  calm  3 mph  8 mph  0.00"  21%  29%  39°F  45°F  29.97"
Sun 07:00 PM  90.3°F  85°F  5 mph SW  4 mph  13 mph  0.00"  16%  26%  37°F  45°F  29.96"
Sun 06:00 PM  93.9°F  87°F  calm  3 mph  9 mph  0.00"  13%  23%  34°F  43°F  29.96"
Sun 05:00 PM  94.1°F  89°F  6 mph SE  3 mph  10 mph  0.00"  13%  22%  34°F  43°F  29.97"
Sun 04:00 PM  94.5°F  90°F  calm  2 mph  6 mph  0.00"  13%  20%  35°F  42°F  29.97"
Sun 03:00 PM  94.7°F  90°F  calm  2 mph  none  0.00"  12%  20%  32°F  42°F  29.99"
Sun 02:00 PM  93.1°F  89°F  calm  2 mph  none  0.00"  11%  20%  29°F  42°F  29.99"
Sun 01:00 PM  91.0°F  88°F  calm  2 mph  none  0.00"  13%  21%  31°F  42°F  30.01"
Sun 12:00 PM  89.0°F  87°F  calm  1 mph  4 mph  0.00"  14%  22%  32°F  42°F  30.01"
Sun 11:00 AM  86.4°F  85°F  calm  1 mph  none  0.00"  17%  23%  36°F  42°F  30.01"
Sun 10:00 AM  82.9°F  83°F  calm  1 mph  none  0.00"  22%  26%  38°F  43°F  30.01"
Sun 09:00 AM  79.4°F  80°F  calm  1 mph  4 mph  0.00"  27%  28%  41°F  43°F  30.00"
Sun 08:00 AM  75.1°F  77°F  calm  1 mph  1 mph  0.00"  31%  31%  42°F  43°F  29.99"
Sun 07:00 AM  70.7°F  72°F  calm  calm  4 mph  0.00"  39%  36%  44°F  43°F  29.98"
Sun 06:00 AM  65.0°F  68°F  3 mph SW  2 mph  5 mph  0.00"  38%  39%  37°F  41°F  29.97"
Sun 05:00 AM  65.8°F  68°F  2 mph SW  2 mph  5 mph  0.00"  38%  39%  39°F  42°F  29.95"
Sun 04:00 AM  64.3°F  69°F  3 mph SW  2 mph  5 mph  0.00"  40%  38%  39°F  42°F  29.94"
Sun 03:00 AM  64.7°F  70°F  calm  2 mph  4 mph  0.00"  39%  37%  38°F  42°F  29.95"
Sun 02:00 AM  66.9°F  71°F  3 mph SW  2 mph  5 mph  0.00"  35%  37%  38°F  42°F  29.96"
Sun 01:00 AM  69.5°F  72°F  2 mph SW  2 mph  7 mph  0.00"  30%  36%  36°F  42°F  29.96"
Sun 12:00 AM  71.8°F  72°F  5 mph SW  2 mph  6 mph  0.00"  26%  37%  34°F  43°F  29.95"
Sat 11:00 PM  71.0°F  73°F  2 mph S  1 mph  5 mph  0.00"  30%  36%  37°F  44°F  29.95"
Sat 10:00 PM  71.6°F  75°F  3 mph S  2 mph  4 mph  0.00"  31%  35%  39°F  44°F  29.94"

  1. Current weather data. No green row appears if the current weather data is also the high or low for the current day.
  2. High temperature for the current day.
  3. Low temperature for the current day.

The Pinon Hills, California weather pages are a service of WeatherCurrents.
Copyright ©2019  WeatherCurrents. All rights reserved. - Submit questions and comments - Privacy Policy

This page automatically refreshes every 10 minutes.